createdAt,value
2024-02-02T00:02:08.264Z,100848.16
2024-02-02T00:07:01.037Z,100857.19
2024-02-02T00:11:54.024Z,100862.02
2024-02-02T00:16:46.873Z,100867.45
2024-02-02T00:21:39.662Z,100874.15
2024-02-02T00:26:32.739Z,100867.60
2024-02-02T00:31:27.742Z,100868.30
2024-02-02T00:36:20.507Z,100872.75
2024-02-02T00:41:13.202Z,100876.22
2024-02-02T00:46:06.146Z,100880.00
2024-02-02T00:51:05.326Z,100885.91
2024-02-02T00:56:42.514Z,100885.87
2024-02-02T01:01:42.357Z,100888.95
2024-02-02T01:06:35.293Z,100893.55
2024-02-02T01:11:28.220Z,100891.52
2024-02-02T01:16:20.976Z,100894.89
2024-02-02T01:21:13.718Z,100899.95
2024-02-02T01:26:06.451Z,100901.88
2024-02-02T01:30:59.181Z,100908.65
2024-02-02T01:35:51.977Z,100907.71
2024-02-02T01:40:45.363Z,100904.67
2024-02-02T01:45:39.581Z,100905.48
2024-02-02T01:50:32.751Z,100909.34
2024-02-02T01:55:25.521Z,100910.36
2024-02-02T02:00:18.937Z,100913.15
2024-02-02T02:05:13.414Z,100919.02
2024-02-02T02:10:06.726Z,100920.61
2024-02-02T02:15:00.231Z,100921.31
2024-02-02T02:19:53.280Z,100925.41
2024-02-02T02:24:46.003Z,100931.42
2024-02-02T02:29:38.764Z,100935.52
2024-02-02T02:34:32.652Z,100938.71
2024-02-02T02:39:25.741Z,100941.91
2024-02-02T02:44:18.590Z,100938.41
2024-02-02T02:49:11.450Z,100941.59
2024-02-02T02:54:04.446Z,100945.96
2024-02-02T02:58:57.173Z,100948.90
2024-02-02T03:03:49.966Z,100940.85
2024-02-02T03:08:42.663Z,100946.23
2024-02-02T03:13:35.393Z,100943.60
2024-02-02T03:18:28.538Z,100947.56
2024-02-02T03:23:21.267Z,100943.23
2024-02-02T03:28:13.976Z,100947.61
2024-02-02T03:33:07.028Z,100956.66
2024-02-02T03:37:59.761Z,100965.91
2024-02-02T03:42:52.477Z,100972.80
2024-02-02T03:47:45.258Z,100976.42
2024-02-02T03:52:37.976Z,100980.52
2024-02-02T03:57:30.782Z,100984.61
2024-02-02T04:02:23.561Z,100987.36
2024-02-02T04:07:16.386Z,100985.11
2024-02-02T04:12:09.219Z,100984.20
2024-02-02T04:17:01.980Z,100984.63
2024-02-02T04:21:54.732Z,100991.10
2024-02-02T04:26:47.647Z,100993.06
2024-02-02T04:31:40.392Z,100991.88
2024-02-02T04:36:33.115Z,100996.84
2024-02-02T04:41:25.869Z,101000.55
2024-02-02T04:46:18.609Z,101009.63
2024-02-02T04:51:11.312Z,101021.73
2024-02-02T04:56:04.051Z,101026.13
2024-02-02T05:00:56.721Z,101031.64
2024-02-02T05:05:49.393Z,101032.46
2024-02-02T05:10:42.148Z,101029.22
2024-02-02T05:15:37.083Z,101040.77
2024-02-02T05:20:29.996Z,101041.92
2024-02-02T05:25:22.724Z,101036.80
2024-02-02T05:30:15.905Z,101042.35
2024-02-02T05:35:09.039Z,101040.55
2024-02-02T05:40:01.775Z,101038.21
2024-02-02T05:44:54.586Z,101039.60
2024-02-02T05:49:47.384Z,101042.70
2024-02-02T05:54:40.205Z,101043.69
2024-02-02T05:59:32.937Z,101047.75
2024-02-02T06:04:25.681Z,101050.78
2024-02-02T06:09:18.448Z,101057.27
2024-02-02T06:14:11.177Z,101064.16
2024-02-02T06:19:04.067Z,101075.30
2024-02-02T06:23:56.894Z,101080.31
2024-02-02T06:28:49.677Z,101082.88
2024-02-02T06:33:42.762Z,101076.05
2024-02-02T06:38:35.656Z,101078.29
2024-02-02T06:43:28.347Z,101079.73
2024-02-02T06:48:22.655Z,101074.91
2024-02-02T06:53:17.120Z,101070.08
2024-02-02T06:58:42.252Z,101075.87
2024-02-02T07:03:35.190Z,101078.77
2024-02-02T07:08:28.425Z,101080.24
2024-02-02T07:13:21.165Z,101080.10
2024-02-02T07:18:38.613Z,101090.29
2024-02-02T07:23:35.920Z,101093.39
2024-02-02T07:28:37.267Z,101094.46
2024-02-02T07:33:43.424Z,101103.52
2024-02-02T07:38:56.324Z,101101.40
2024-02-02T07:43:49.392Z,101101.89
2024-02-02T07:48:42.442Z,101108.20
2024-02-02T07:53:35.914Z,101110.52
2024-02-02T07:58:28.618Z,101110.45
2024-02-02T08:03:21.403Z,101112.16
2024-02-02T08:08:14.365Z,101114.38
2024-02-02T08:13:07.077Z,101105.97
2024-02-02T08:17:59.922Z,101111.67
2024-02-02T08:22:52.823Z,101117.67
2024-02-02T08:27:45.745Z,101121.02
2024-02-02T08:32:39.618Z,101118.94
2024-02-02T08:37:33.331Z,101120.49
2024-02-02T08:42:26.587Z,101119.33
2024-02-02T08:47:20.624Z,101117.77
2024-02-02T08:52:32.982Z,101119.98
2024-02-02T08:57:38.818Z,101118.91
2024-02-02T09:02:50.351Z,101122.29
2024-02-02T09:07:43.634Z,101119.43
2024-02-02T09:12:36.333Z,101122.13
2024-02-02T09:17:33.236Z,101117.97
2024-02-02T09:22:28.471Z,101116.79
2024-02-02T09:27:38.049Z,101119.70
2024-02-02T09:32:31.144Z,101121.28
2024-02-02T09:37:31.821Z,101121.19
2024-02-02T09:43:03.136Z,101120.90
2024-02-02T09:48:02.798Z,101119.59
2024-02-02T09:53:38.676Z,101126.61
2024-02-02T09:58:57.773Z,101133.02
2024-02-02T10:04:12.795Z,101126.55
2024-02-02T10:09:39.541Z,101133.08
2024-02-02T10:14:50.913Z,101130.11
2024-02-02T10:19:55.569Z,101125.84
2024-02-02T10:25:00.348Z,101121.64
2024-02-02T10:30:14.624Z,101117.10
2024-02-02T10:35:25.678Z,101105.54
2024-02-02T10:40:57.966Z,101097.55
2024-02-02T10:46:09.762Z,101096.18
2024-02-02T10:51:30.079Z,101091.84
2024-02-02T10:56:44.725Z,101086.17
2024-02-02T11:01:48.655Z,101091.80
2024-02-02T11:06:47.626Z,101089.91
2024-02-02T11:11:47.046Z,101096.82
2024-02-02T11:16:46.147Z,101096.35
2024-02-02T11:22:04.360Z,101095.58
2024-02-02T11:27:07.453Z,101092.58
2024-02-02T11:32:35.859Z,101088.14
2024-02-02T11:38:12.866Z,101093.50
2024-02-02T11:43:08.406Z,101087.52
2024-02-02T11:48:06.332Z,101083.29
2024-02-02T11:53:16.520Z,101077.95
2024-02-02T11:58:12.134Z,101072.11
2024-02-02T12:03:22.782Z,101060.00
2024-02-02T12:08:38.353Z,101055.58
2024-02-02T12:13:32.636Z,101053.22
2024-02-02T12:18:26.854Z,101054.83
2024-02-02T12:23:19.793Z,101052.21
2024-02-02T12:28:13.507Z,101047.13
2024-02-02T12:33:09.132Z,101036.95
2024-02-02T12:38:01.926Z,101040.73
2024-02-02T12:42:58.753Z,101029.14
2024-02-02T12:47:52.702Z,101022.13
2024-02-02T12:52:51.839Z,101019.95
2024-02-02T12:57:45.155Z,101013.08
2024-02-02T13:02:38.302Z,101016.52
2024-02-02T13:07:32.347Z,101010.99
2024-02-02T13:12:29.512Z,101013.69
2024-02-02T13:17:22.552Z,101005.70
2024-02-02T13:22:22.939Z,101007.67
2024-02-02T13:27:20.857Z,101000.86
2024-02-02T13:32:23.084Z,100989.05
2024-02-02T13:37:30.743Z,100990.73
2024-02-02T13:42:24.849Z,100986.46
2024-02-02T13:47:21.556Z,100990.27
2024-02-02T13:52:14.514Z,100982.34
2024-02-02T13:57:08.884Z,100974.23
2024-02-02T14:02:08.919Z,100972.37
2024-02-02T14:07:02.156Z,100968.05
2024-02-02T14:12:02.537Z,100966.41
2024-02-02T14:17:05.628Z,100959.45
2024-02-02T14:22:09.566Z,100954.89
2024-02-02T14:27:04.666Z,100941.60
2024-02-02T14:31:59.312Z,100936.21
2024-02-02T14:36:52.235Z,100923.19
2024-02-02T14:41:45.164Z,100913.32
2024-02-02T14:46:41.180Z,100908.76
2024-02-02T14:51:34.145Z,100900.30
2024-02-02T14:56:27.811Z,100891.05
2024-02-02T15:01:22.681Z,100884.34
2024-02-02T15:06:15.726Z,100877.02
2024-02-02T15:11:10.316Z,100869.23
2024-02-02T15:16:04.740Z,100861.55
2024-02-02T15:20:57.877Z,100853.14
2024-02-02T15:25:50.886Z,100849.41
2024-02-02T15:30:44.422Z,100847.73
2024-02-02T15:35:37.303Z,100849.46
2024-02-02T15:40:30.073Z,100849.45
2024-02-02T15:45:24.267Z,100850.34
2024-02-02T15:50:17.281Z,100846.51
2024-02-02T15:55:11.477Z,100839.01
2024-02-02T16:00:09.834Z,100837.89
2024-02-02T16:05:02.695Z,100832.85
2024-02-02T16:09:57.583Z,100822.79
2024-02-02T16:14:50.399Z,100814.47
2024-02-02T16:19:43.370Z,100803.77
2024-02-02T16:24:37.027Z,100791.66
2024-02-02T16:29:29.846Z,100774.35
2024-02-02T16:34:23.275Z,100762.45
2024-02-02T16:39:18.241Z,100749.44
2024-02-02T16:44:11.382Z,100739.07
2024-02-02T16:49:04.840Z,100740.84
2024-02-02T16:53:57.679Z,100738.59
2024-02-02T16:58:50.368Z,100731.52
2024-02-02T17:03:43.898Z,100724.80
2024-02-02T17:08:37.903Z,100705.30
2024-02-02T17:13:30.932Z,100694.14
2024-02-02T17:18:23.708Z,100688.79
2024-02-02T17:23:16.509Z,100686.46
2024-02-02T17:28:09.211Z,100678.72
2024-02-02T17:33:02.099Z,100669.39
2024-02-02T17:37:54.873Z,100665.05
2024-02-02T17:42:48.274Z,100664.11
2024-02-02T17:47:41.501Z,100656.48
2024-02-02T17:52:34.818Z,100639.79
2024-02-02T17:57:27.544Z,100628.75
2024-02-02T18:02:20.455Z,100621.23
2024-02-02T18:07:13.489Z,100608.36
2024-02-02T18:12:07.098Z,100598.40
2024-02-02T18:17:00.017Z,100588.40
2024-02-02T18:21:52.804Z,100580.46
2024-02-02T18:26:46.615Z,100573.31
2024-02-02T18:31:42.942Z,100563.59
2024-02-02T18:36:35.833Z,100550.42
2024-02-02T18:41:30.250Z,100549.07
2024-02-02T18:46:30.724Z,100538.56
2024-02-02T18:51:24.777Z,100539.85
2024-02-02T18:56:17.746Z,100520.23
2024-02-02T19:01:10.504Z,100511.23
2024-02-02T19:06:03.719Z,100505.05
2024-02-02T19:11:02.156Z,100495.20
2024-02-02T19:15:54.934Z,100469.54
2024-02-02T19:20:47.829Z,100466.98
2024-02-02T19:25:40.535Z,100465.54
2024-02-02T19:30:36.453Z,100452.60
2024-02-02T19:35:29.392Z,100450.80
2024-02-02T19:40:22.849Z,100449.17
2024-02-02T19:45:15.655Z,100442.42
2024-02-02T19:50:08.948Z,100431.80
2024-02-02T19:55:04.080Z,100415.03
2024-02-02T19:59:58.759Z,100399.23
2024-02-02T20:04:52.027Z,100388.46
2024-02-02T20:09:45.010Z,100381.30
2024-02-02T20:14:38.391Z,100365.50
2024-02-02T20:19:31.212Z,100347.81
2024-02-02T20:24:24.073Z,100330.45
2024-02-02T20:29:17.886Z,100313.63
2024-02-02T20:34:10.846Z,100308.46
2024-02-02T20:39:03.912Z,100308.11
2024-02-02T20:43:58.556Z,100304.15
2024-02-02T20:48:51.430Z,100298.97
2024-02-02T20:53:44.367Z,100298.66
2024-02-02T20:58:39.528Z,100280.77
2024-02-02T21:03:32.352Z,100270.12
2024-02-02T21:08:25.119Z,100255.05
2024-02-02T21:13:19.409Z,100239.14
2024-02-02T21:18:16.107Z,100234.31
2024-02-02T21:23:09.092Z,100220.10
2024-02-02T21:28:01.847Z,100219.58
2024-02-02T21:32:55.655Z,100203.10
2024-02-02T21:37:48.390Z,100190.70
2024-02-02T21:42:41.406Z,100184.15
2024-02-02T21:47:34.437Z,100175.52
2024-02-02T21:52:27.215Z,100167.14
2024-02-02T21:57:19.935Z,100160.14
2024-02-02T22:02:12.697Z,100145.95
2024-02-02T22:07:05.678Z,100143.20
2024-02-02T22:11:58.660Z,100125.56
2024-02-02T22:16:51.836Z,100122.85
2024-02-02T22:21:44.632Z,100114.98
2024-02-02T22:26:37.454Z,100105.23
2024-02-02T22:31:30.754Z,100095.14
2024-02-02T22:36:26.221Z,100084.92
2024-02-02T22:41:33.117Z,100077.77
2024-02-02T22:46:27.626Z,100081.96
2024-02-02T22:51:20.587Z,100078.81
2024-02-02T22:56:13.373Z,100085.90
2024-02-02T23:01:07.293Z,100085.69
2024-02-02T23:06:00.608Z,100064.39
2024-02-02T23:10:53.353Z,100044.98
2024-02-02T23:15:46.680Z,100017.64
2024-02-02T23:20:39.486Z,100004.94
2024-02-02T23:25:32.297Z,99996.48
2024-02-02T23:30:25.420Z,99996.10
2024-02-02T23:35:18.322Z,99992.30
2024-02-02T23:40:11.993Z,99987.70
2024-02-02T23:45:07.381Z,99972.02
2024-02-02T23:50:00.303Z,99954.64
2024-02-02T23:54:53.300Z,99948.42
2024-02-02T23:59:46.028Z,99928.48
